createdAt,value
2022-12-28T00:00:00.392Z,-1.57
2022-12-28T00:00:32.135Z,-1.67
2022-12-28T00:01:07.888Z,-1.64
2022-12-28T00:01:39.550Z,-1.62
2022-12-28T00:02:11.162Z,-1.63
2022-12-28T00:02:42.811Z,-1.64
2022-12-28T00:03:14.450Z,-1.73
2022-12-28T00:03:46.864Z,-1.78
2022-12-28T00:04:18.443Z,-1.70
2022-12-28T00:04:50.190Z,-1.68
2022-12-28T00:05:21.939Z,-1.70
2022-12-28T00:05:53.925Z,-1.67
2022-12-28T00:06:26.350Z,-1.64
2022-12-28T00:06:57.912Z,-1.67
2022-12-28T00:07:29.511Z,-1.71
2022-12-28T00:08:01.153Z,-1.73
2022-12-28T00:08:32.892Z,-1.66
2022-12-28T00:09:04.675Z,-1.63
2022-12-28T00:09:36.261Z,-1.66
2022-12-28T00:10:07.993Z,-1.63
2022-12-28T00:11:08.772Z,-1.63
2022-12-28T00:11:31.462Z,-1.57
2022-12-28T00:12:03.107Z,-1.54
2022-12-28T00:12:34.709Z,-1.54
2022-12-28T00:13:06.321Z,-1.50
2022-12-28T00:13:38.544Z,-1.57
2022-12-28T00:14:10.128Z,-1.62
2022-12-28T00:14:41.894Z,-1.66
2022-12-28T00:15:13.513Z,-1.64
2022-12-28T00:15:45.088Z,-1.60
2022-12-28T00:16:37.285Z,-1.68
2022-12-28T00:17:08.923Z,-1.68
2022-12-28T00:17:40.492Z,-1.66
2022-12-28T00:18:12.112Z,-1.67
2022-12-28T00:18:43.709Z,-1.68
2022-12-28T00:19:16.934Z,-1.67
2022-12-28T00:19:48.526Z,-1.63
2022-12-28T00:20:20.236Z,-1.60
2022-12-28T00:20:59.344Z,-1.59
2022-12-28T00:21:31.189Z,-1.63
2022-12-28T00:22:02.768Z,-1.59
2022-12-28T00:22:34.518Z,-1.57
2022-12-28T00:23:06.866Z,-1.60
2022-12-28T00:23:38.447Z,-1.64
2022-12-28T00:24:19.758Z,-1.64
2022-12-28T00:24:51.306Z,-1.75
2022-12-28T00:25:22.861Z,-1.84
2022-12-28T00:25:54.604Z,-1.90
2022-12-28T00:26:31.084Z,-1.95
2022-12-28T00:27:02.666Z,-1.91
2022-12-28T00:27:34.319Z,-1.98
2022-12-28T00:28:05.971Z,-1.98
2022-12-28T00:28:37.707Z,-1.97
2022-12-28T00:29:09.399Z,-2.01
2022-12-28T00:29:40.954Z,-2.05
2022-12-28T00:30:13.002Z,-2.06
2022-12-28T00:30:44.653Z,-2.06
2022-12-28T00:31:16.636Z,-2.06
2022-12-28T00:31:48.587Z,-2.01
2022-12-28T00:32:20.184Z,-2.05
2022-12-28T00:32:51.788Z,-1.98
2022-12-28T00:33:23.437Z,-1.95
2022-12-28T00:33:55.002Z,-1.85
2022-12-28T00:34:26.654Z,-1.81
2022-12-28T00:34:58.225Z,-1.80
2022-12-28T00:35:29.791Z,-1.80
2022-12-28T00:36:02.426Z,-1.77
2022-12-28T00:37:08.385Z,-1.81
2022-12-28T00:37:25.962Z,-1.75
2022-12-28T00:37:57.529Z,-1.75
2022-12-28T00:38:33.154Z,-1.78
2022-12-28T00:39:05.673Z,-1.71
2022-12-28T00:39:37.269Z,-1.71
2022-12-28T00:40:09.711Z,-1.67
2022-12-28T00:40:41.274Z,-1.67
2022-12-28T00:41:12.843Z,-1.70
2022-12-28T00:41:44.419Z,-1.71
2022-12-28T00:42:16.145Z,-1.74
2022-12-28T00:42:47.708Z,-1.75
2022-12-28T00:43:19.517Z,-1.75
2022-12-28T00:43:51.201Z,-1.77
2022-12-28T00:44:22.770Z,-1.77
2022-12-28T00:44:54.363Z,-1.75
2022-12-28T00:45:25.964Z,-1.78
2022-12-28T00:45:57.642Z,-1.74
2022-12-28T00:46:29.233Z,-1.77
2022-12-28T00:47:00.867Z,-1.71
2022-12-28T00:47:32.460Z,-1.66
2022-12-28T00:48:04.579Z,-1.67
2022-12-28T00:48:36.183Z,-1.68
2022-12-28T00:49:07.742Z,-1.64
2022-12-28T00:49:39.410Z,-1.70
2022-12-28T00:50:11.058Z,-1.77
2022-12-28T00:50:44.461Z,-1.81
2022-12-28T00:51:19.372Z,-1.74
2022-12-28T00:51:50.994Z,-1.73
2022-12-28T00:52:22.617Z,-1.74
2022-12-28T00:52:54.208Z,-1.64
2022-12-28T00:53:25.753Z,-1.64
2022-12-28T00:53:57.398Z,-1.71
2022-12-28T00:54:29.359Z,-1.75
2022-12-28T00:55:00.967Z,-1.74
2022-12-28T00:55:36.059Z,-1.77
2022-12-28T00:56:12.181Z,-1.78
2022-12-28T00:56:43.851Z,-1.74
2022-12-28T00:57:15.437Z,-1.74
2022-12-28T00:57:47.027Z,-1.80
2022-12-28T00:58:18.630Z,-1.78
2022-12-28T00:58:50.989Z,-1.78
2022-12-28T00:59:22.622Z,-1.84
2022-12-28T00:59:54.166Z,-1.85
2022-12-28T01:00:26.301Z,-1.85
2022-12-28T01:00:57.929Z,-1.99
2022-12-28T01:01:29.976Z,-2.02
2022-12-28T01:02:01.758Z,-2.02
2022-12-28T01:02:33.496Z,-1.97
2022-12-28T01:03:05.394Z,-2.04
2022-12-28T01:03:37.046Z,-2.04
2022-12-28T01:04:08.631Z,-2.02
2022-12-28T01:04:40.208Z,-2.04
2022-12-28T01:05:11.800Z,-2.04
2022-12-28T01:05:43.369Z,-1.94
2022-12-28T01:06:18.703Z,-1.90
2022-12-28T01:06:50.268Z,-1.94
2022-12-28T01:07:21.880Z,-1.93
2022-12-28T01:07:53.528Z,-1.88
2022-12-28T01:08:25.257Z,-1.90
2022-12-28T01:08:56.776Z,-1.93
2022-12-28T01:09:28.332Z,-1.99
2022-12-28T01:09:59.946Z,-1.94
2022-12-28T01:10:31.518Z,-1.87
2022-12-28T01:11:14.012Z,-1.88
2022-12-28T01:11:46.358Z,-1.85
2022-12-28T01:12:17.952Z,-1.81
2022-12-28T01:12:49.539Z,-1.88
2022-12-28T01:13:21.093Z,-1.90
2022-12-28T01:13:54.679Z,-1.90
2022-12-28T01:14:26.345Z,-1.91
2022-12-28T01:14:57.968Z,-1.91
2022-12-28T01:15:29.580Z,-1.99
2022-12-28T01:16:01.169Z,-1.94
2022-12-28T01:16:35.857Z,-2.04
2022-12-28T01:17:07.465Z,-2.06
2022-12-28T01:17:39.463Z,-1.98
2022-12-28T01:18:11.112Z,-1.97
2022-12-28T01:18:45.706Z,-2.12
2022-12-28T01:19:21.250Z,-2.12
2022-12-28T01:19:54.165Z,-2.08
2022-12-28T01:20:25.801Z,-2.15
2022-12-28T01:20:57.394Z,-2.05
2022-12-28T01:21:32.344Z,-2.04
2022-12-28T01:22:03.928Z,-2.06
2022-12-28T01:22:35.564Z,-2.05
2022-12-28T01:23:07.352Z,-2.09
2022-12-28T01:23:39.432Z,-2.01
2022-12-28T01:24:10.984Z,-1.97
2022-12-28T01:24:42.525Z,-1.99
2022-12-28T01:25:14.240Z,-2.02
2022-12-28T01:25:45.851Z,-1.93
2022-12-28T01:26:17.495Z,-1.94
2022-12-28T01:26:49.145Z,-1.98
2022-12-28T01:27:20.915Z,-1.99
2022-12-28T01:27:52.458Z,-1.93
2022-12-28T01:28:24.037Z,-1.91
2022-12-28T01:28:56.204Z,-1.87
2022-12-28T01:29:27.769Z,-1.90
2022-12-28T01:29:59.349Z,-1.84
2022-12-28T01:30:30.961Z,-1.84
2022-12-28T01:31:11.561Z,-1.91
2022-12-28T01:31:43.194Z,-1.87
2022-12-28T01:32:14.920Z,-1.90
2022-12-28T01:32:46.537Z,-1.87
2022-12-28T01:33:18.072Z,-1.91
2022-12-28T01:33:49.869Z,-1.87
2022-12-28T01:34:21.417Z,-1.84
2022-12-28T01:34:52.994Z,-1.85
2022-12-28T01:35:24.567Z,-1.85
2022-12-28T01:35:56.190Z,-1.85
2022-12-28T01:36:35.136Z,-1.90
2022-12-28T01:37:06.724Z,-1.90
2022-12-28T01:37:38.315Z,-1.91
2022-12-28T01:38:09.890Z,-1.87
2022-12-28T01:38:41.987Z,-1.90
2022-12-28T01:39:13.558Z,-1.90
2022-12-28T01:39:45.097Z,-1.93
2022-12-28T01:40:16.784Z,-1.90
2022-12-28T01:40:50.492Z,-1.83
2022-12-28T01:41:22.735Z,-1.83
2022-12-28T01:41:54.482Z,-1.83
2022-12-28T01:42:26.130Z,-1.85
2022-12-28T01:42:57.682Z,-1.87
2022-12-28T01:43:46.779Z,-1.84
2022-12-28T01:44:24.085Z,-1.98
2022-12-28T01:44:55.660Z,-1.97
2022-12-28T01:45:27.323Z,-1.90
2022-12-28T01:45:59.066Z,-1.84
2022-12-28T01:47:02.944Z,-1.91
2022-12-28T01:47:35.780Z,-1.97
2022-12-28T01:48:20.109Z,-1.98
2022-12-28T01:49:13.767Z,-1.95
2022-12-28T01:49:54.848Z,-1.93
2022-12-28T01:50:28.815Z,-1.88
2022-12-28T01:51:01.242Z,-1.90
2022-12-28T01:51:55.970Z,-1.87
2022-12-28T01:52:27.536Z,-1.87
2022-12-28T01:53:02.790Z,-1.84
2022-12-28T01:53:34.480Z,-1.80
2022-12-28T01:54:06.085Z,-1.83
2022-12-28T01:54:42.218Z,-1.84
2022-12-28T01:55:23.632Z,-1.78
2022-12-28T01:55:55.228Z,-1.83
2022-12-28T01:56:27.744Z,-1.80
2022-12-28T01:56:59.604Z,-1.81
2022-12-28T01:57:33.576Z,-1.85
2022-12-28T01:58:21.517Z,-1.74
2022-12-28T01:58:54.027Z,-1.85
2022-12-28T01:59:30.510Z,-1.80
2022-12-28T02:00:20.597Z,-1.83
2022-12-28T02:01:34.799Z,-1.93
2022-12-28T02:02:07.020Z,-1.91
2022-12-28T02:02:40.531Z,-1.93
2022-12-28T02:03:18.552Z,-1.93
2022-12-28T02:03:50.403Z,-1.90
2022-12-28T02:04:22.086Z,-1.94
2022-12-28T02:04:53.761Z,-1.94
2022-12-28T02:05:29.933Z,-1.93
2022-12-28T02:06:06.500Z,-1.90
2022-12-28T02:06:38.578Z,-1.93
2022-12-28T02:07:10.357Z,-1.95
2022-12-28T02:07:53.465Z,-1.95
2022-12-28T02:08:47.268Z,-1.95
2022-12-28T02:09:39.711Z,-1.98
2022-12-28T02:10:42.619Z,-2.02
2022-12-28T02:11:03.537Z,-2.05
2022-12-28T02:11:36.199Z,-2.08
2022-12-28T02:12:10.901Z,-2.05
2022-12-28T02:12:43.671Z,-2.09
2022-12-28T02:13:17.290Z,-2.21
2022-12-28T02:13:51.515Z,-2.21
2022-12-28T02:14:23.233Z,-2.23
2022-12-28T02:14:54.818Z,-2.29
2022-12-28T02:15:26.429Z,-2.29
2022-12-28T02:15:58.106Z,-2.26
2022-12-28T02:16:29.804Z,-2.26
2022-12-28T02:17:01.653Z,-2.22
2022-12-28T02:17:34.260Z,-2.18
2022-12-28T02:18:06.245Z,-2.21
2022-12-28T02:18:38.949Z,-2.19
2022-12-28T02:19:16.108Z,-2.19
2022-12-28T02:19:49.397Z,-2.16
2022-12-28T02:20:21.105Z,-2.14
2022-12-28T02:21:20.267Z,-2.12
2022-12-28T02:22:28.802Z,-2.09
2022-12-28T02:23:24.270Z,-1.99
2022-12-28T02:24:28.136Z,-2.01
2022-12-28T02:25:29.555Z,-1.98
2022-12-28T02:26:38.584Z,-1.97
2022-12-28T02:27:19.269Z,-1.90
2022-12-28T02:28:23.252Z,-1.98
2022-12-28T02:29:10.017Z,-1.91
2022-12-28T02:30:03.618Z,-1.88
2022-12-28T02:30:42.663Z,-1.84
2022-12-28T02:31:44.669Z,-1.84
2022-12-28T02:32:34.844Z,-1.84
2022-12-28T02:33:09.905Z,-1.81
2022-12-28T02:33:51.341Z,-1.80
2022-12-28T02:34:31.845Z,-1.85
2022-12-28T02:35:33.319Z,-1.88
2022-12-28T02:36:18.506Z,-2.12
2022-12-28T02:36:56.619Z,-2.12
2022-12-28T02:37:42.242Z,-2.08
2022-12-28T02:38:23.384Z,-2.06
2022-12-28T02:39:11.533Z,-1.98
2022-12-28T02:39:52.841Z,-1.91
2022-12-28T02:40:38.168Z,-1.94
2022-12-28T02:41:14.132Z,-1.88
2022-12-28T02:41:47.109Z,-1.84
2022-12-28T02:42:20.880Z,-1.80
2022-12-28T02:42:54.783Z,-1.81
2022-12-28T02:43:26.528Z,-1.83
2022-12-28T02:43:59.503Z,-1.81
2022-12-28T02:44:49.409Z,-1.83
2022-12-28T02:46:06.676Z,-1.97
2022-12-28T02:46:57.191Z,-2.02
2022-12-28T02:47:47.553Z,-2.01
2022-12-28T02:48:37.856Z,-2.02
2022-12-28T02:49:42.555Z,-2.04
2022-12-28T02:50:16.328Z,-2.02
2022-12-28T02:51:00.681Z,-1.99
2022-12-28T02:51:41.384Z,-2.02
2022-12-28T02:52:18.970Z,-2.02
2022-12-28T02:53:12.939Z,-1.95
2022-12-28T02:54:01.432Z,-2.02
2022-12-28T02:55:15.923Z,-2.01
2022-12-28T02:56:12.091Z,-2.06
2022-12-28T02:56:55.855Z,-2.12
2022-12-28T02:57:42.582Z,-2.15
2022-12-28T02:58:26.143Z,-2.11
2022-12-28T02:59:11.636Z,-2.21
2022-12-28T03:00:02.210Z,-2.26
2022-12-28T03:00:51.709Z,-2.21
2022-12-28T03:01:38.323Z,-2.19
2022-12-28T03:02:48.387Z,-2.21
2022-12-28T03:03:55.414Z,-2.23
2022-12-28T03:05:14.591Z,-2.19
2022-12-28T03:06:19.789Z,-2.28
2022-12-28T03:07:24.344Z,-2.19
2022-12-28T03:08:19.888Z,-2.09
2022-12-28T03:09:15.855Z,-2.08
2022-12-28T03:10:15.816Z,-2.09
2022-12-28T03:11:00.191Z,-2.14
2022-12-28T03:11:44.021Z,-2.12
2022-12-28T03:12:29.795Z,-2.21
2022-12-28T03:13:28.101Z,-2.22
2022-12-28T03:14:02.380Z,-2.25
2022-12-28T03:14:43.195Z,-2.25
2022-12-28T03:15:29.726Z,-2.22
2022-12-28T03:16:07.772Z,-2.21
2022-12-28T03:17:01.356Z,-2.21
2022-12-28T03:17:55.334Z,-2.23
2022-12-28T03:18:48.067Z,-2.21
2022-12-28T03:19:39.879Z,-2.31
2022-12-28T03:20:41.917Z,-2.36
2022-12-28T03:21:33.935Z,-2.43
2022-12-28T03:22:25.638Z,-2.52
2022-12-28T03:23:17.732Z,-2.56
2022-12-28T03:24:10.325Z,-2.60
2022-12-28T03:25:03.041Z,-2.59
2022-12-28T03:25:58.990Z,-2.57
2022-12-28T03:26:52.916Z,-2.74
2022-12-28T03:27:44.781Z,-2.80
2022-12-28T03:28:39.441Z,-2.87
2022-12-28T03:29:34.789Z,-2.85
2022-12-28T03:30:32.837Z,-2.76
2022-12-28T03:31:12.535Z,-2.66
2022-12-28T03:31:44.305Z,-2.57
2022-12-28T03:32:15.967Z,-2.67
2022-12-28T03:32:48.616Z,-2.90
2022-12-28T03:33:20.272Z,-2.76
2022-12-28T03:34:06.628Z,-2.69
2022-12-28T03:34:38.557Z,-2.72
2022-12-28T03:35:10.299Z,-2.74
2022-12-28T03:36:05.215Z,-2.67
2022-12-28T03:37:14.883Z,-2.62
2022-12-28T03:38:11.503Z,-2.60
2022-12-28T03:39:01.588Z,-2.56
2022-12-28T03:39:48.037Z,-2.50
2022-12-28T03:40:29.580Z,-2.45
2022-12-28T03:41:08.374Z,-2.45
2022-12-28T03:42:18.033Z,-2.35
2022-12-28T03:43:10.499Z,-2.31
2022-12-28T03:43:56.160Z,-2.25
2022-12-28T03:44:33.038Z,-2.23
2022-12-28T03:45:44.476Z,-2.21
2022-12-28T03:46:35.755Z,-2.26
2022-12-28T03:47:11.588Z,-2.22
2022-12-28T03:47:44.995Z,-2.29
2022-12-28T03:48:17.902Z,-2.32
2022-12-28T03:48:50.642Z,-2.28
2022-12-28T03:49:24.318Z,-2.23
2022-12-28T03:49:55.942Z,-2.28
2022-12-28T03:50:28.713Z,-2.32
2022-12-28T03:51:00.881Z,-2.28
2022-12-28T03:51:33.495Z,-2.31
2022-12-28T03:52:07.291Z,-2.29
2022-12-28T03:52:38.871Z,-2.32
2022-12-28T03:53:11.091Z,-2.31
2022-12-28T03:53:45.679Z,-2.25
2022-12-28T03:54:17.924Z,-2.25
2022-12-28T03:54:49.559Z,-2.26
2022-12-28T03:55:21.238Z,-2.16
2022-12-28T03:55:52.798Z,-2.16
2022-12-28T03:56:27.826Z,-2.21
2022-12-28T03:56:59.411Z,-2.28
2022-12-28T03:57:31.017Z,-2.23
2022-12-28T03:58:02.624Z,-2.25
2022-12-28T03:58:34.274Z,-2.28
2022-12-28T03:59:05.865Z,-2.33
2022-12-28T03:59:37.519Z,-2.33
2022-12-28T04:00:10.921Z,-2.45
2022-12-28T04:00:42.529Z,-2.49
2022-12-28T04:01:14.622Z,-2.52
2022-12-28T04:01:46.400Z,-2.45
2022-12-28T04:02:18.253Z,-2.49
2022-12-28T04:02:51.177Z,-2.46
2022-12-28T04:03:22.923Z,-2.46
2022-12-28T04:03:54.531Z,-2.35
2022-12-28T04:04:26.114Z,-2.36
2022-12-28T04:04:57.656Z,-2.38
2022-12-28T04:05:29.312Z,-2.36
2022-12-28T04:06:01.186Z,-2.32
2022-12-28T04:06:32.787Z,-2.36
2022-12-28T04:07:04.413Z,-2.33
2022-12-28T04:07:36.028Z,-2.39
2022-12-28T04:08:07.571Z,-2.42
2022-12-28T04:08:39.380Z,-2.46
2022-12-28T04:09:10.994Z,-2.56
2022-12-28T04:09:42.550Z,-2.50
2022-12-28T04:10:14.185Z,-2.52
2022-12-28T04:10:45.812Z,-2.53
2022-12-28T04:11:17.394Z,-2.53
2022-12-28T04:11:48.992Z,-2.53
2022-12-28T04:12:21.237Z,-2.53
2022-12-28T04:12:56.896Z,-2.59
2022-12-28T04:13:30.787Z,-2.57
2022-12-28T04:14:10.333Z,-2.73
2022-12-28T04:14:42.405Z,-2.70
2022-12-28T04:15:14.049Z,-2.72
2022-12-28T04:15:56.247Z,-2.70
2022-12-28T04:16:27.886Z,-2.67
2022-12-28T04:16:59.485Z,-2.64
2022-12-28T04:17:31.082Z,-2.69
2022-12-28T04:18:02.666Z,-2.62
2022-12-28T04:18:34.833Z,-2.60
2022-12-28T04:19:06.425Z,-2.62
2022-12-28T04:19:38.065Z,-2.54
2022-12-28T04:20:09.956Z,-2.53
2022-12-28T04:20:41.518Z,-2.53
2022-12-28T04:21:14.738Z,-2.59
2022-12-28T04:21:47.490Z,-2.64
2022-12-28T04:22:19.039Z,-2.73
2022-12-28T04:22:50.621Z,-2.73
2022-12-28T04:23:22.340Z,-2.66
2022-12-28T04:23:53.969Z,-2.63
2022-12-28T04:24:25.605Z,-2.66
2022-12-28T04:24:57.164Z,-2.67
2022-12-28T04:25:28.765Z,-2.76
2022-12-28T04:26:09.590Z,-2.81
2022-12-28T04:26:41.193Z,-2.79
2022-12-28T04:27:12.784Z,-2.77
2022-12-28T04:27:44.381Z,-2.70
2022-12-28T04:28:15.925Z,-2.74
2022-12-28T04:28:47.540Z,-2.76
2022-12-28T04:29:19.162Z,-2.76
2022-12-28T04:29:50.920Z,-2.73
2022-12-28T04:30:22.522Z,-2.76
2022-12-28T04:30:54.343Z,-2.76
2022-12-28T04:31:25.986Z,-2.76
2022-12-28T04:31:57.853Z,-2.67
2022-12-28T04:32:29.462Z,-2.64
2022-12-28T04:33:01.014Z,-2.63
2022-12-28T04:33:34.118Z,-2.64
2022-12-28T04:34:06.656Z,-2.74
2022-12-28T04:34:40.909Z,-2.79
2022-12-28T04:35:14.962Z,-2.80
2022-12-28T04:35:46.605Z,-2.73
2022-12-28T04:36:18.201Z,-2.72
2022-12-28T04:36:49.779Z,-2.66
2022-12-28T04:37:21.390Z,-2.66
2022-12-28T04:37:52.976Z,-2.64
2022-12-28T04:38:24.525Z,-2.59
2022-12-28T04:38:56.113Z,-2.63
2022-12-28T04:39:27.741Z,-2.72
2022-12-28T04:40:19.259Z,-2.91
2022-12-28T04:40:50.802Z,-2.77
2022-12-28T04:41:22.379Z,-2.80
2022-12-28T04:41:53.994Z,-2.90
2022-12-28T04:42:26.327Z,-2.83
2022-12-28T04:42:57.958Z,-2.80
2022-12-28T04:43:33.306Z,-2.73
2022-12-28T04:44:04.886Z,-2.69
2022-12-28T04:44:36.482Z,-2.66
2022-12-28T04:45:08.616Z,-2.63
2022-12-28T04:45:40.227Z,-2.62
2022-12-28T04:46:14.181Z,-2.57
2022-12-28T04:46:45.832Z,-2.53
2022-12-28T04:47:17.447Z,-2.53
2022-12-28T04:47:49.031Z,-2.53
2022-12-28T04:48:20.633Z,-2.52
2022-12-28T04:48:52.265Z,-2.50
2022-12-28T04:49:23.837Z,-2.49
2022-12-28T04:49:55.522Z,-2.46
2022-12-28T04:50:29.898Z,-2.49
2022-12-28T04:51:25.679Z,-2.54
2022-12-28T04:51:57.283Z,-2.62
2022-12-28T04:52:28.858Z,-2.76
2022-12-28T04:53:00.418Z,-2.73
2022-12-28T04:53:31.960Z,-2.72
2022-12-28T04:54:03.724Z,-2.69
2022-12-28T04:54:35.324Z,-2.64
2022-12-28T04:55:07.320Z,-2.64
2022-12-28T04:56:03.934Z,-2.62
2022-12-28T04:56:35.531Z,-2.63
2022-12-28T04:57:07.088Z,-2.69
2022-12-28T04:57:38.632Z,-2.79
2022-12-28T04:58:10.254Z,-2.87
2022-12-28T04:58:41.976Z,-2.85
2022-12-28T04:59:13.558Z,-2.83
2022-12-28T04:59:45.169Z,-2.83
2022-12-28T05:00:17.046Z,-2.81
2022-12-28T05:00:48.623Z,-2.79
2022-12-28T05:01:20.335Z,-2.80
2022-12-28T05:01:52.092Z,-2.84
2022-12-28T05:02:23.795Z,-2.85
2022-12-28T05:02:59.244Z,-3.00
2022-12-28T05:03:30.891Z,-3.00
2022-12-28T05:04:02.675Z,-2.98
2022-12-28T05:04:34.255Z,-2.93
2022-12-28T05:05:06.155Z,-3.00
2022-12-28T05:05:37.810Z,-3.00
2022-12-28T05:06:13.139Z,-3.12
2022-12-28T05:06:44.698Z,-3.02
2022-12-28T05:07:16.279Z,-3.09
2022-12-28T05:07:47.910Z,-3.04
2022-12-28T05:08:19.442Z,-3.09
2022-12-28T05:08:51.855Z,-3.08
2022-12-28T05:09:23.739Z,-3.16
2022-12-28T05:09:55.345Z,-3.19
2022-12-28T05:10:27.424Z,-3.21
2022-12-28T05:11:03.753Z,-3.16
2022-12-28T05:11:35.340Z,-3.12
2022-12-28T05:12:06.936Z,-3.16
2022-12-28T05:12:38.528Z,-3.18
2022-12-28T05:13:10.114Z,-3.11
2022-12-28T05:13:41.950Z,-3.18
2022-12-28T05:14:13.577Z,-3.16
2022-12-28T05:14:45.188Z,-3.14
2022-12-28T05:15:16.763Z,-3.15
2022-12-28T05:15:48.344Z,-3.12
2022-12-28T05:16:22.505Z,-3.07
2022-12-28T05:16:54.116Z,-3.02
2022-12-28T05:17:25.699Z,-2.98
2022-12-28T05:17:57.338Z,-2.97
2022-12-28T05:18:29.787Z,-3.02
2022-12-28T05:19:01.369Z,-2.98
2022-12-28T05:19:32.990Z,-2.94
2022-12-28T05:20:05.392Z,-2.88
2022-12-28T05:20:36.973Z,-2.97
2022-12-28T05:21:10.831Z,-3.02
2022-12-28T05:21:42.411Z,-3.14
2022-12-28T05:22:15.675Z,-3.11
2022-12-28T05:22:47.352Z,-3.05
2022-12-28T05:23:18.953Z,-3.19
2022-12-28T05:23:51.366Z,-3.30
2022-12-28T05:24:22.969Z,-3.27
2022-12-28T05:24:54.587Z,-3.42
2022-12-28T05:25:26.152Z,-3.60
2022-12-28T05:25:57.961Z,-3.55
2022-12-28T05:26:29.860Z,-3.52
2022-12-28T05:27:01.679Z,-3.52
2022-12-28T05:27:33.309Z,-3.46
2022-12-28T05:28:04.974Z,-3.46
2022-12-28T05:28:36.572Z,-3.49
2022-12-28T05:29:08.265Z,-3.41
2022-12-28T05:29:39.850Z,-3.41
2022-12-28T05:30:11.711Z,-3.41
2022-12-28T05:30:43.247Z,-3.41
2022-12-28T05:31:17.878Z,-3.32
2022-12-28T05:31:49.468Z,-3.22
2022-12-28T05:32:21.087Z,-3.18
2022-12-28T05:32:52.687Z,-3.24
2022-12-28T05:33:24.271Z,-3.16
2022-12-28T05:33:56.135Z,-3.08
2022-12-28T05:34:27.683Z,-3.04
2022-12-28T05:34:59.260Z,-3.05
2022-12-28T05:35:30.842Z,-3.02
2022-12-28T05:36:04.598Z,-3.14
2022-12-28T05:36:39.756Z,-3.07
2022-12-28T05:37:14.411Z,-3.11
2022-12-28T05:37:48.547Z,-3.09
2022-12-28T05:38:20.139Z,-3.11
2022-12-28T05:38:52.779Z,-3.12
2022-12-28T05:39:24.629Z,-3.28
2022-12-28T05:39:56.644Z,-3.18
2022-12-28T05:40:28.310Z,-3.11
2022-12-28T05:41:11.299Z,-3.04
2022-12-28T05:41:42.895Z,-3.02
2022-12-28T05:42:14.442Z,-2.98
2022-12-28T05:42:51.200Z,-2.97
2022-12-28T05:43:23.340Z,-3.01
2022-12-28T05:43:56.244Z,-3.00
2022-12-28T05:44:28.082Z,-2.98
2022-12-28T05:44:59.660Z,-2.95
2022-12-28T05:45:31.256Z,-2.95
2022-12-28T05:46:11.462Z,-2.95
2022-12-28T05:46:43.123Z,-2.90
2022-12-28T05:47:14.673Z,-3.01
2022-12-28T05:47:46.241Z,-2.97
2022-12-28T05:48:17.796Z,-3.00
2022-12-28T05:48:49.452Z,-2.93
2022-12-28T05:49:21.298Z,-2.90
2022-12-28T05:49:52.888Z,-2.94
2022-12-28T05:50:24.521Z,-2.91
2022-12-28T05:50:59.559Z,-2.87
2022-12-28T05:51:32.574Z,-2.80
2022-12-28T05:52:04.279Z,-2.79
2022-12-28T05:52:38.642Z,-2.84
2022-12-28T05:53:10.487Z,-2.88
2022-12-28T05:53:43.152Z,-3.05
2022-12-28T05:54:14.775Z,-3.12
2022-12-28T05:54:46.330Z,-3.15
2022-12-28T05:55:17.992Z,-3.09
2022-12-28T05:55:49.565Z,-3.08
2022-12-28T05:56:29.450Z,-3.16
2022-12-28T05:57:01.001Z,-3.39
2022-12-28T05:57:32.659Z,-3.35
2022-12-28T05:58:05.646Z,-3.19
2022-12-28T05:58:37.308Z,-3.25
2022-12-28T05:59:09.290Z,-3.22
2022-12-28T05:59:40.957Z,-3.27
2022-12-28T06:00:13.144Z,-3.21
2022-12-28T06:00:44.721Z,-3.18
2022-12-28T06:01:21.737Z,-3.28
2022-12-28T06:01:53.507Z,-3.35
2022-12-28T06:02:27.686Z,-3.31
2022-12-28T06:02:59.467Z,-3.28
2022-12-28T06:03:31.400Z,-3.24
2022-12-28T06:04:15.192Z,-3.18
2022-12-28T06:04:46.757Z,-3.16
2022-12-28T06:05:18.302Z,-3.15
2022-12-28T06:05:50.508Z,-3.25
2022-12-28T06:06:22.437Z,-3.21
2022-12-28T06:06:56.666Z,-3.12
2022-12-28T06:07:28.256Z,-3.11
2022-12-28T06:08:01.115Z,-3.16
2022-12-28T06:08:32.952Z,-3.16
2022-12-28T06:09:04.946Z,-3.25
2022-12-28T06:09:36.514Z,-3.31
2022-12-28T06:10:08.598Z,-3.24
2022-12-28T06:10:40.155Z,-3.34
2022-12-28T06:11:14.541Z,-3.41
2022-12-28T06:11:46.285Z,-3.39
2022-12-28T06:12:18.024Z,-3.42
2022-12-28T06:12:49.638Z,-3.36
2022-12-28T06:13:21.198Z,-3.38
2022-12-28T06:13:53.240Z,-3.43
2022-12-28T06:14:24.784Z,-3.43
2022-12-28T06:14:56.389Z,-3.51
2022-12-28T06:15:27.959Z,-3.49
2022-12-28T06:16:04.588Z,-3.52
2022-12-28T06:16:39.344Z,-3.58
2022-12-28T06:17:11.012Z,-3.56
2022-12-28T06:17:42.602Z,-3.66
2022-12-28T06:18:14.187Z,-3.59
2022-12-28T06:18:46.351Z,-3.64
2022-12-28T06:19:18.354Z,-3.69
2022-12-28T06:19:49.918Z,-3.76
2022-12-28T06:20:21.454Z,-3.87
2022-12-28T06:20:56.983Z,-3.82
2022-12-28T06:21:31.786Z,-3.97
2022-12-28T06:22:03.395Z,-4.03
2022-12-28T06:22:36.164Z,-3.89
2022-12-28T06:23:07.701Z,-3.86
2022-12-28T06:23:39.365Z,-3.84
2022-12-28T06:24:11.490Z,-3.76
2022-12-28T06:24:43.113Z,-3.70
2022-12-28T06:25:14.752Z,-3.59
2022-12-28T06:25:46.365Z,-3.55
2022-12-28T06:26:20.388Z,-3.53
2022-12-28T06:26:51.998Z,-3.52
2022-12-28T06:27:23.579Z,-3.51
2022-12-28T06:27:55.135Z,-3.43
2022-12-28T06:28:27.480Z,-3.43
2022-12-28T06:28:59.996Z,-3.43
2022-12-28T06:29:31.544Z,-3.45
2022-12-28T06:30:03.498Z,-3.43
2022-12-28T06:30:35.126Z,-3.41
2022-12-28T06:31:23.828Z,-3.43
2022-12-28T06:31:56.615Z,-3.41
2022-12-28T06:32:28.264Z,-3.41
2022-12-28T06:32:59.830Z,-3.46
2022-12-28T06:33:31.588Z,-3.38
2022-12-28T06:34:04.884Z,-3.32
2022-12-28T06:34:36.709Z,-3.31
2022-12-28T06:35:08.772Z,-3.31
2022-12-28T06:35:41.281Z,-3.25
2022-12-28T06:36:19.927Z,-3.19
2022-12-28T06:36:52.832Z,-3.16
2022-12-28T06:37:24.373Z,-3.08
2022-12-28T06:37:55.901Z,-3.08
2022-12-28T06:38:29.654Z,-3.12
2022-12-28T06:39:03.526Z,-3.05
2022-12-28T06:39:35.072Z,-3.02
2022-12-28T06:40:07.227Z,-3.11
2022-12-28T06:41:11.736Z,-3.05
2022-12-28T06:41:30.755Z,-3.08
2022-12-28T06:42:02.318Z,-3.16
2022-12-28T06:42:33.914Z,-3.19
2022-12-28T06:43:05.674Z,-3.22
2022-12-28T06:43:39.021Z,-3.28
2022-12-28T06:44:13.559Z,-3.24
2022-12-28T06:44:45.139Z,-3.21
2022-12-28T06:45:16.823Z,-3.21
2022-12-28T06:45:57.758Z,-3.18
2022-12-28T06:46:30.508Z,-3.27
2022-12-28T06:47:02.110Z,-3.12
2022-12-28T06:47:36.183Z,-3.24
2022-12-28T06:48:07.765Z,-3.22
2022-12-28T06:48:40.606Z,-3.22
2022-12-28T06:49:12.267Z,-3.27
2022-12-28T06:49:43.911Z,-3.18
2022-12-28T06:50:15.605Z,-3.24
2022-12-28T06:51:04.937Z,-3.38
2022-12-28T06:51:40.674Z,-3.38
2022-12-28T06:52:12.449Z,-3.42
2022-12-28T06:52:44.018Z,-3.42
2022-12-28T06:53:15.560Z,-3.41
2022-12-28T06:53:48.120Z,-3.39
2022-12-28T06:54:19.729Z,-3.30
2022-12-28T06:54:51.339Z,-3.19
2022-12-28T06:55:22.975Z,-3.31
2022-12-28T06:56:03.539Z,-3.31
2022-12-28T06:56:36.405Z,-3.28
2022-12-28T06:57:07.993Z,-3.22
2022-12-28T06:57:39.600Z,-3.25
2022-12-28T06:58:11.132Z,-3.28
2022-12-28T06:58:43.754Z,-3.32
2022-12-28T06:59:15.374Z,-3.36
2022-12-28T06:59:46.979Z,-3.28
2022-12-28T07:00:18.689Z,-3.18
2022-12-28T07:00:50.455Z,-3.08
2022-12-28T07:01:25.212Z,-3.02
2022-12-28T07:01:56.995Z,-3.12
2022-12-28T07:02:28.769Z,-3.08
2022-12-28T07:03:00.487Z,-3.02
2022-12-28T07:03:32.064Z,-3.07
2022-12-28T07:04:05.831Z,-3.07
2022-12-28T07:04:37.387Z,-3.04
2022-12-28T07:05:09.231Z,-2.97
2022-12-28T07:05:40.785Z,-3.01
2022-12-28T07:06:13.713Z,-3.07
2022-12-28T07:06:45.475Z,-2.98
2022-12-28T07:07:17.049Z,-3.01
2022-12-28T07:07:48.659Z,-3.01
2022-12-28T07:08:20.253Z,-3.05
2022-12-28T07:08:52.513Z,-3.00
2022-12-28T07:09:24.080Z,-3.02
2022-12-28T07:09:55.664Z,-3.02
2022-12-28T07:10:27.246Z,-2.97
2022-12-28T07:11:13.640Z,-2.91
2022-12-28T07:11:45.554Z,-2.87
2022-12-28T07:12:17.148Z,-2.81
2022-12-28T07:12:48.695Z,-2.73
2022-12-28T07:13:26.201Z,-2.67
2022-12-28T07:13:59.806Z,-2.72
2022-12-28T07:14:32.456Z,-2.66
2022-12-28T07:15:04.337Z,-2.63
2022-12-28T07:15:37.035Z,-2.60
2022-12-28T07:16:12.709Z,-2.67
2022-12-28T07:16:44.812Z,-2.66
2022-12-28T07:17:16.425Z,-2.59
2022-12-28T07:17:47.982Z,-2.54
2022-12-28T07:18:19.559Z,-2.45
2022-12-28T07:18:51.247Z,-2.39
2022-12-28T07:19:22.813Z,-2.38
2022-12-28T07:19:55.626Z,-2.38
2022-12-28T07:20:27.249Z,-2.33
2022-12-28T07:21:07.691Z,-2.26
2022-12-28T07:21:40.168Z,-2.36
2022-12-28T07:22:11.757Z,-2.33
2022-12-28T07:22:43.407Z,-2.31
2022-12-28T07:23:14.978Z,-2.45
2022-12-28T07:23:46.877Z,-2.42
2022-12-28T07:24:18.496Z,-2.52
2022-12-28T07:24:50.081Z,-2.52
2022-12-28T07:25:21.700Z,-2.49
2022-12-28T07:25:53.257Z,-2.43
2022-12-28T07:26:28.723Z,-2.36
2022-12-28T07:27:00.318Z,-2.31
2022-12-28T07:27:31.933Z,-2.36
2022-12-28T07:28:03.624Z,-2.36
2022-12-28T07:28:41.090Z,-2.50
2022-12-28T07:29:12.757Z,-2.49
2022-12-28T07:29:44.349Z,-2.43
2022-12-28T07:30:15.980Z,-2.35
2022-12-28T07:30:47.573Z,-2.32
2022-12-28T07:31:22.227Z,-2.29
2022-12-28T07:31:53.881Z,-2.25
2022-12-28T07:32:25.468Z,-2.16
2022-12-28T07:32:57.112Z,-2.14
2022-12-28T07:33:28.701Z,-2.12
2022-12-28T07:34:01.267Z,-2.11
2022-12-28T07:34:33.296Z,-2.01